createdAt,value
2023-05-03T00:03:24.001Z,100.00
2023-05-03T00:08:26.957Z,100.00
2023-05-03T00:13:29.949Z,100.00
2023-05-03T00:18:32.953Z,100.00
2023-05-03T00:23:35.854Z,100.00
2023-05-03T00:28:39.256Z,100.00
2023-05-03T00:33:42.431Z,100.00
2023-05-03T00:38:45.480Z,100.00
2023-05-03T00:43:48.464Z,100.00
2023-05-03T00:48:51.505Z,100.00
2023-05-03T00:53:54.688Z,100.00
2023-05-03T00:58:58.200Z,100.00
2023-05-03T01:04:03.164Z,100.00
2023-05-03T01:09:23.918Z,100.00
2023-05-03T01:14:51.595Z,100.00
2023-05-03T01:20:08.756Z,100.00
2023-05-03T01:25:14.081Z,100.00
2023-05-03T01:30:17.484Z,100.00
2023-05-03T01:35:42.409Z,100.00
2023-05-03T01:41:01.086Z,100.00
2023-05-03T01:46:04.646Z,100.00
2023-05-03T01:51:07.687Z,100.00
2023-05-03T01:56:10.710Z,100.00
2023-05-03T02:01:13.944Z,100.00
2023-05-03T02:06:16.984Z,100.00
2023-05-03T02:11:21.693Z,100.00
2023-05-03T02:16:24.776Z,100.00
2023-05-03T02:21:27.810Z,100.00
2023-05-03T02:26:30.692Z,100.00
2023-05-03T02:31:33.660Z,100.00
2023-05-03T02:36:36.780Z,100.00
2023-05-03T02:41:39.783Z,100.00
2023-05-03T02:46:42.835Z,100.00
2023-05-03T02:51:46.013Z,100.00
2023-05-03T02:56:49.190Z,100.00
2023-05-03T03:01:52.604Z,100.00
2023-05-03T03:06:57.195Z,100.00
2023-05-03T03:12:05.681Z,100.00
2023-05-03T03:17:12.236Z,100.00
2023-05-03T03:22:15.271Z,100.00
2023-05-03T03:27:18.095Z,100.00
2023-05-03T03:32:21.930Z,100.00
2023-05-03T03:37:25.078Z,100.00
2023-05-03T03:42:28.010Z,100.00
2023-05-03T03:47:31.077Z,100.00
2023-05-03T03:52:34.151Z,100.00
2023-05-03T03:57:37.079Z,100.00
2023-05-03T04:02:41.024Z,100.00
2023-05-03T04:07:43.961Z,100.00
2023-05-03T04:12:47.121Z,100.00
2023-05-03T04:17:50.057Z,100.00
2023-05-03T04:22:53.166Z,100.00
2023-05-03T04:27:56.190Z,100.00
2023-05-03T04:33:00.851Z,100.00
2023-05-03T04:38:04.264Z,100.00
2023-05-03T04:43:07.643Z,100.00
2023-05-03T04:48:10.537Z,100.00
2023-05-03T04:53:13.487Z,100.00
2023-05-03T04:58:16.625Z,100.00
2023-05-03T05:03:19.555Z,100.00
2023-05-03T05:08:23.133Z,100.00
2023-05-03T05:13:26.480Z,100.00
2023-05-03T05:18:29.398Z,100.00
2023-05-03T05:23:32.514Z,100.00
2023-05-03T05:28:35.430Z,100.00
2023-05-03T05:33:38.525Z,100.00
2023-05-03T05:38:42.843Z,100.00
2023-05-03T05:43:45.852Z,100.00
2023-05-03T05:48:48.656Z,100.00
2023-05-03T05:53:51.631Z,100.00
2023-05-03T05:58:54.479Z,100.00
2023-05-03T06:03:57.378Z,100.00
2023-05-03T06:09:04.764Z,100.00
2023-05-03T06:14:13.092Z,100.00
2023-05-03T06:19:16.370Z,100.00
2023-05-03T06:24:21.392Z,100.00
2023-05-03T06:29:25.113Z,100.00
2023-05-03T06:34:30.693Z,100.00
2023-05-03T06:39:33.802Z,100.00
2023-05-03T06:44:36.904Z,100.00
2023-05-03T06:49:41.302Z,100.00
2023-05-03T06:54:44.769Z,100.00
2023-05-03T06:59:49.624Z,100.00
2023-05-03T07:04:53.072Z,100.00
2023-05-03T07:09:59.808Z,100.00
2023-05-03T07:15:02.741Z,100.00
2023-05-03T07:20:06.866Z,100.00
2023-05-03T07:25:10.111Z,100.00
2023-05-03T07:30:13.581Z,100.00
2023-05-03T07:35:17.029Z,100.00
2023-05-03T07:40:19.797Z,99.71
2023-05-03T07:45:22.573Z,97.78
2023-05-03T07:50:25.582Z,95.88
2023-05-03T07:55:30.276Z,97.52
2023-05-03T08:00:33.273Z,94.82
2023-05-03T08:05:36.823Z,91.42
2023-05-03T08:10:39.880Z,91.16
2023-05-03T08:15:42.698Z,87.79
2023-05-03T08:20:47.163Z,86.22
2023-05-03T08:25:50.290Z,84.67
2023-05-03T08:30:53.444Z,84.17
2023-05-03T08:35:56.302Z,83.32
2023-05-03T08:41:03.926Z,85.89
2023-05-03T08:46:10.929Z,83.73
2023-05-03T08:51:16.869Z,85.87
2023-05-03T08:56:41.945Z,77.86
2023-05-03T09:01:44.980Z,77.53
2023-05-03T09:06:48.138Z,82.41
2023-05-03T09:11:52.808Z,79.26
2023-05-03T09:16:56.126Z,78.83
2023-05-03T09:22:08.023Z,79.90
2023-05-03T09:27:22.196Z,75.91
2023-05-03T09:32:25.798Z,77.58
2023-05-03T09:37:38.864Z,78.16
2023-05-03T09:43:03.684Z,75.73
2023-05-03T09:48:08.845Z,76.29
2023-05-03T09:53:11.706Z,73.13
2023-05-03T09:58:16.697Z,73.83
2023-05-03T10:03:28.540Z,71.56
2023-05-03T10:08:45.671Z,73.77
2023-05-03T10:13:48.872Z,71.71
2023-05-03T10:19:06.056Z,70.83
2023-05-03T10:24:16.632Z,72.95
2023-05-03T10:29:34.780Z,65.97
2023-05-03T10:34:39.820Z,65.68
2023-05-03T10:39:46.758Z,64.97
2023-05-03T10:44:49.861Z,67.90
2023-05-03T10:50:14.754Z,69.12
2023-05-03T10:55:24.879Z,65.54
2023-05-03T11:00:37.942Z,65.37
2023-05-03T11:05:40.908Z,67.07
2023-05-03T11:10:49.565Z,69.81
2023-05-03T11:15:56.678Z,63.28
2023-05-03T11:20:59.994Z,68.71
2023-05-03T11:26:06.862Z,64.39
2023-05-03T11:31:13.685Z,67.61
2023-05-03T11:36:17.117Z,66.91
2023-05-03T11:41:20.208Z,63.08
2023-05-03T11:46:31.923Z,63.86
2023-05-03T11:51:35.805Z,66.78
2023-05-03T11:56:38.769Z,65.60
2023-05-03T12:01:43.465Z,66.50
2023-05-03T12:06:54.005Z,65.11
2023-05-03T12:11:58.869Z,65.82
2023-05-03T12:17:02.849Z,68.17
2023-05-03T12:22:23.944Z,66.57
2023-05-03T12:27:28.870Z,66.66
2023-05-03T12:32:32.047Z,65.98
2023-05-03T12:37:38.319Z,66.01
2023-05-03T12:42:43.317Z,66.73
2023-05-03T12:47:49.921Z,66.49
2023-05-03T12:52:53.772Z,66.91
2023-05-03T12:58:18.027Z,65.70
2023-05-03T13:03:22.067Z,66.44
2023-05-03T13:08:33.563Z,66.16
2023-05-03T13:13:37.377Z,66.45
2023-05-03T13:18:43.042Z,66.09
2023-05-03T13:23:47.871Z,65.55
2023-05-03T13:28:51.139Z,66.49
2023-05-03T13:33:54.594Z,67.58
2023-05-03T13:38:58.215Z,68.68
2023-05-03T13:44:01.394Z,68.42
2023-05-03T13:49:08.384Z,69.00
2023-05-03T13:54:11.294Z,68.56
2023-05-03T13:59:14.578Z,69.11
2023-05-03T14:04:18.451Z,68.91
2023-05-03T14:09:21.486Z,68.08
2023-05-03T14:14:27.814Z,68.14
2023-05-03T14:19:30.975Z,68.15
2023-05-03T14:24:33.932Z,66.78
2023-05-03T14:29:36.970Z,65.89
2023-05-03T14:34:40.222Z,61.42
2023-05-03T14:39:43.344Z,63.02
2023-05-03T14:44:46.842Z,62.97
2023-05-03T14:49:51.197Z,62.93
2023-05-03T14:54:54.618Z,63.02
2023-05-03T14:59:58.421Z,63.54
2023-05-03T15:05:03.640Z,64.84
2023-05-03T15:10:07.994Z,64.72
2023-05-03T15:15:12.124Z,65.33
2023-05-03T15:20:15.908Z,66.70
2023-05-03T15:25:19.200Z,68.04
2023-05-03T15:30:22.357Z,69.05
2023-05-03T15:35:25.521Z,68.73
2023-05-03T15:40:29.018Z,70.24
2023-05-03T15:45:32.975Z,70.54
2023-05-03T15:50:36.073Z,70.93
2023-05-03T15:55:39.184Z,71.18
2023-05-03T16:00:42.464Z,71.71
2023-05-03T16:05:46.917Z,72.00
2023-05-03T16:10:50.084Z,72.05
2023-05-03T16:15:56.521Z,71.71
2023-05-03T16:21:01.043Z,72.01
2023-05-03T16:26:14.574Z,72.47
2023-05-03T16:31:18.036Z,72.66
2023-05-03T16:36:20.869Z,72.76
2023-05-03T16:41:24.524Z,73.59
2023-05-03T16:46:27.604Z,73.88
2023-05-03T16:51:31.635Z,74.92
2023-05-03T16:56:34.827Z,75.19
2023-05-03T17:01:37.720Z,75.78
2023-05-03T17:06:40.960Z,76.36
2023-05-03T17:11:44.077Z,77.27
2023-05-03T17:16:49.036Z,77.22
2023-05-03T17:21:52.729Z,77.75
2023-05-03T17:26:56.806Z,77.77
2023-05-03T17:31:59.855Z,78.24
2023-05-03T17:37:02.989Z,78.68
2023-05-03T17:42:06.594Z,79.03
2023-05-03T17:47:11.036Z,79.33
2023-05-03T17:52:13.980Z,79.05
2023-05-03T17:57:17.159Z,78.95
2023-05-03T18:02:21.377Z,79.63
2023-05-03T18:07:25.101Z,79.20
2023-05-03T18:12:28.514Z,79.02
2023-05-03T18:17:32.122Z,78.96
2023-05-03T18:22:35.175Z,78.66
2023-05-03T18:27:38.264Z,78.19
2023-05-03T18:32:41.206Z,78.94
2023-05-03T18:37:44.575Z,79.45
2023-05-03T18:42:47.432Z,79.42
2023-05-03T18:47:50.445Z,79.44
2023-05-03T18:52:54.670Z,79.35
2023-05-03T18:57:58.942Z,79.74
2023-05-03T19:03:02.012Z,79.68
2023-05-03T19:08:05.721Z,79.80
2023-05-03T19:13:09.219Z,79.93
2023-05-03T19:18:14.765Z,79.50
2023-05-03T19:23:19.738Z,79.24
2023-05-03T19:28:22.948Z,79.80
2023-05-03T19:33:26.145Z,79.68
2023-05-03T19:38:29.124Z,79.81
2023-05-03T19:43:32.505Z,79.47
2023-05-03T19:48:35.756Z,79.76
2023-05-03T19:53:38.772Z,79.86
2023-05-03T19:58:41.994Z,79.66
2023-05-03T20:03:45.286Z,79.94
2023-05-03T20:08:49.449Z,80.14
2023-05-03T20:13:52.187Z,80.44
2023-05-03T20:18:55.482Z,80.37
2023-05-03T20:23:58.822Z,80.31
2023-05-03T20:29:01.575Z,80.12
2023-05-03T20:34:04.332Z,80.24
2023-05-03T20:39:09.611Z,80.40
2023-05-03T20:44:13.813Z,80.33
2023-05-03T20:49:16.823Z,80.63
2023-05-03T20:54:19.795Z,80.76
2023-05-03T20:59:22.854Z,80.99
2023-05-03T21:04:26.794Z,80.94
2023-05-03T21:09:30.556Z,81.15
2023-05-03T21:14:33.748Z,81.53
2023-05-03T21:19:36.678Z,82.08
2023-05-03T21:24:40.386Z,82.56
2023-05-03T21:29:44.674Z,82.84
2023-05-03T21:34:47.689Z,83.40
2023-05-03T21:40:01.043Z,83.67
2023-05-03T21:45:05.489Z,83.57
2023-05-03T21:50:08.820Z,84.05
2023-05-03T21:55:12.356Z,84.19
2023-05-03T22:00:19.540Z,84.30
2023-05-03T22:05:22.474Z,84.40
2023-05-03T22:10:25.874Z,84.74
2023-05-03T22:15:32.251Z,84.69
2023-05-03T22:20:35.396Z,84.95
2023-05-03T22:25:38.789Z,85.41
2023-05-03T22:30:41.865Z,85.16
2023-05-03T22:35:44.944Z,85.13
2023-05-03T22:40:47.946Z,85.71
2023-05-03T22:45:50.907Z,85.83
2023-05-03T22:50:53.898Z,85.94
2023-05-03T22:56:04.398Z,86.01
2023-05-03T23:01:11.898Z,86.30
2023-05-03T23:06:15.344Z,86.55
2023-05-03T23:11:18.561Z,86.76
2023-05-03T23:16:22.028Z,87.33
2023-05-03T23:21:25.283Z,87.72
2023-05-03T23:26:29.151Z,88.15
2023-05-03T23:31:33.854Z,88.10
2023-05-03T23:36:38.847Z,88.58
2023-05-03T23:41:41.919Z,89.16
2023-05-03T23:46:44.947Z,89.72
2023-05-03T23:51:47.958Z,90.32
2023-05-03T23:56:51.418Z,90.80
